sensor_id;sensor_type;location;lat;lon;timestamp;pressure;altitude;pressure_sealevel;temperature;humidity
74218;BME280;62579;47.288;18.646;2023-02-01T00:01:08;100021.88;;;4.04;77.10
74218;BME280;62579;47.288;18.646;2023-02-01T00:03:34;100019.34;;;4.00;77.52
74218;BME280;62579;47.288;18.646;2023-02-01T00:05:59;100010.81;;;4.02;77.38
74218;BME280;62579;47.288;18.646;2023-02-01T00:08:26;100016.50;;;4.04;77.09
74218;BME280;62579;47.288;18.646;2023-02-01T00:11:08;100009.63;;;4.03;76.98
74218;BME280;62579;47.288;18.646;2023-02-01T00:13:36;100016.94;;;4.02;76.99
74218;BME280;62579;47.288;18.646;2023-02-01T00:16:07;100016.34;;;4.07;77.14
74218;BME280;62579;47.288;18.646;2023-02-01T00:18:33;100018.47;;;4.03;76.94
74218;BME280;62579;47.288;18.646;2023-02-01T00:20:59;100008.56;;;4.09;76.59
74218;BME280;62579;47.288;18.646;2023-02-01T00:23:25;100008.12;;;4.11;76.04
74218;BME280;62579;47.288;18.646;2023-02-01T00:25:50;99999.75;;;4.18;76.10
74218;BME280;62579;47.288;18.646;2023-02-01T00:28:16;99995.09;;;4.09;76.08
74218;BME280;62579;47.288;18.646;2023-02-01T00:30:41;99994.50;;;4.14;76.37
74218;BME280;62579;47.288;18.646;2023-02-01T00:33:07;99994.84;;;4.16;75.52
74218;BME280;62579;47.288;18.646;2023-02-01T00:35:34;99983.72;;;4.14;76.11
74218;BME280;62579;47.288;18.646;2023-02-01T00:37:59;99981.50;;;4.22;75.52
74218;BME280;62579;47.288;18.646;2023-02-01T00:40:25;99986.91;;;4.22;75.19
74218;BME280;62579;47.288;18.646;2023-02-01T00:42:51;99983.44;;;4.21;75.43
74218;BME280;62579;47.288;18.646;2023-02-01T00:45:17;99980.16;;;4.17;75.13
74218;BME280;62579;47.288;18.646;2023-02-01T00:47:42;99985.53;;;4.17;75.22
74218;BME280;62579;47.288;18.646;2023-02-01T00:50:08;99983.00;;;4.14;75.31
74218;BME280;62579;47.288;18.646;2023-02-01T00:52:34;99984.34;;;4.18;74.92
74218;BME280;62579;47.288;18.646;2023-02-01T00:55:00;99980.59;;;4.07;75.45
74218;BME280;62579;47.288;18.646;2023-02-01T00:57:25;99990.34;;;4.13;75.27
74218;BME280;62579;47.288;18.646;2023-02-01T00:59:51;99993.78;;;4.14;75.15
74218;BME280;62579;47.288;18.646;2023-02-01T01:02:16;99994.81;;;4.07;75.42
74218;BME280;62579;47.288;18.646;2023-02-01T01:04:41;99991.66;;;4.09;75.39
74218;BME280;62579;47.288;18.646;2023-02-01T01:07:07;99992.87;;;4.08;75.42
74218;BME280;62579;47.288;18.646;2023-02-01T01:09:32;100001.66;;;3.90;76.16
74218;BME280;62579;47.288;18.646;2023-02-01T01:11:58;100003.75;;;3.86;75.89
74218;BME280;62579;47.288;18.646;2023-02-01T01:14:28;100004.19;;;3.85;76.12
74218;BME280;62579;47.288;18.646;2023-02-01T01:16:53;99995.81;;;3.83;76.11
74218;BME280;62579;47.288;18.646;2023-02-01T01:19:19;99995.78;;;3.64;76.87
74218;BME280;62579;47.288;18.646;2023-02-01T01:21:44;99988.31;;;3.69;76.61
74218;BME280;62579;47.288;18.646;2023-02-01T01:24:10;99989.53;;;3.68;76.46
74218;BME280;62579;47.288;18.646;2023-02-01T01:26:35;99992.22;;;3.68;76.39
74218;BME280;62579;47.288;18.646;2023-02-01T01:29:00;99991.78;;;3.78;75.40
74218;BME280;62579;47.288;18.646;2023-02-01T01:31:26;99979.22;;;3.75;75.55
74218;BME280;62579;47.288;18.646;2023-02-01T01:33:54;99975.19;;;3.71;75.35
74218;BME280;62579;47.288;18.646;2023-02-01T01:36:20;99966.94;;;3.74;74.85
74218;BME280;62579;47.288;18.646;2023-02-01T01:38:46;99955.59;;;3.70;74.82
74218;BME280;62579;47.288;18.646;2023-02-01T01:41:18;99947.22;;;3.86;74.17
74218;BME280;62579;47.288;18.646;2023-02-01T01:43:56;99942.16;;;3.97;73.65
74218;BME280;62579;47.288;18.646;2023-02-01T01:46:25;99945.44;;;4.01;73.47
74218;BME280;62579;47.288;18.646;2023-02-01T01:51:29;99941.09;;;3.95;73.93
74218;BME280;62579;47.288;18.646;2023-02-01T01:54:05;99937.69;;;4.03;73.58
74218;BME280;62579;47.288;18.646;2023-02-01T01:56:35;99937.50;;;4.07;73.56
74218;BME280;62579;47.288;18.646;2023-02-01T01:59:01;99934.97;;;4.12;73.42
74218;BME280;62579;47.288;18.646;2023-02-01T02:01:27;99939.59;;;4.12;73.91
74218;BME280;62579;47.288;18.646;2023-02-01T02:03:54;99931.66;;;4.17;73.81
74218;BME280;62579;47.288;18.646;2023-02-01T02:06:22;99930.91;;;4.17;74.00
74218;BME280;62579;47.288;18.646;2023-02-01T02:08:51;99933.50;;;4.11;74.43
74218;BME280;62579;47.288;18.646;2023-02-01T02:11:17;99930.78;;;4.02;74.85
74218;BME280;62579;47.288;18.646;2023-02-01T02:13:46;99923.16;;;4.10;74.62
74218;BME280;62579;47.288;18.646;2023-02-01T02:19:15;99925.97;;;4.06;74.99
74218;BME280;62579;47.288;18.646;2023-02-01T02:22:02;99917.75;;;4.10;74.97
74218;BME280;62579;47.288;18.646;2023-02-01T02:27:22;99914.94;;;4.13;74.86
74218;BME280;62579;47.288;18.646;2023-02-01T02:41:01;99909.06;;;4.24;73.98
74218;BME280;62579;47.288;18.646;2023-02-01T02:43:37;99926.44;;;4.23;74.27
74218;BME280;62579;47.288;18.646;2023-02-01T02:46:36;99899.78;;;4.25;74.46
74218;BME280;62579;47.288;18.646;2023-02-01T02:52:09;99916.69;;;4.44;73.14
74218;BME280;62579;47.288;18.646;2023-02-01T02:54:56;99905.16;;;4.43;73.49
74218;BME280;62579;47.288;18.646;2023-02-01T02:57:28;99906.03;;;4.49;73.24
74218;BME280;62579;47.288;18.646;2023-02-01T03:00:19;99910.69;;;4.40;74.13
74218;BME280;62579;47.288;18.646;2023-02-01T03:03:05;99911.03;;;4.33;74.05
74218;BME280;62579;47.288;18.646;2023-02-01T03:05:50;99902.75;;;4.36;73.63
74218;BME280;62579;47.288;18.646;2023-02-01T03:08:16;99901.44;;;4.32;74.24
74218;BME280;62579;47.288;18.646;2023-02-01T03:11:03;99906.34;;;4.42;73.48
74218;BME280;62579;47.288;18.646;2023-02-01T03:13:48;99903.09;;;4.20;74.71
74218;BME280;62579;47.288;18.646;2023-02-01T03:16:38;99915.22;;;4.24;74.42
74218;BME280;62579;47.288;18.646;2023-02-01T03:19:16;99907.56;;;4.23;74.35
74218;BME280;62579;47.288;18.646;2023-02-01T03:21:47;99909.37;;;4.26;74.23
74218;BME280;62579;47.288;18.646;2023-02-01T03:24:20;99913.41;;;4.21;74.35
74218;BME280;62579;47.288;18.646;2023-02-01T03:26:55;99911.03;;;4.14;74.71
74218;BME280;62579;47.288;18.646;2023-02-01T03:29:30;99909.50;;;4.22;74.34
74218;BME280;62579;47.288;18.646;2023-02-01T03:32:00;99914.75;;;4.17;74.73
74218;BME280;62579;47.288;18.646;2023-02-01T03:34:25;99915.22;;;4.15;74.93
74218;BME280;62579;47.288;18.646;2023-02-01T03:36:58;99909.53;;;4.13;75.00
74218;BME280;62579;47.288;18.646;2023-02-01T03:39:32;99909.25;;;4.02;75.45
74218;BME280;62579;47.288;18.646;2023-02-01T03:42:02;99920.91;;;4.08;75.16
74218;BME280;62579;47.288;18.646;2023-02-01T03:47:27;99923.59;;;3.90;75.90
74218;BME280;62579;47.288;18.646;2023-02-01T03:50:15;99922.84;;;3.81;76.58
74218;BME280;62579;47.288;18.646;2023-02-01T03:52:44;99932.72;;;3.84;76.61
74218;BME280;62579;47.288;18.646;2023-02-01T03:55:13;99918.06;;;3.94;75.65
74218;BME280;62579;47.288;18.646;2023-02-01T03:57:50;99934.38;;;3.99;75.75
74218;BME280;62579;47.288;18.646;2023-02-01T04:00:20;99935.41;;;3.93;75.82
74218;BME280;62579;47.288;18.646;2023-02-01T04:02:47;99943.78;;;3.86;76.27
74218;BME280;62579;47.288;18.646;2023-02-01T04:05:12;99928.53;;;3.92;76.07
74218;BME280;62579;47.288;18.646;2023-02-01T04:07:38;99935.13;;;3.91;76.12
74218;BME280;62579;47.288;18.646;2023-02-01T04:10:04;99925.22;;;3.88;76.46
74218;BME280;62579;47.288;18.646;2023-02-01T04:12:29;99924.94;;;3.86;76.71
74218;BME280;62579;47.288;18.646;2023-02-01T04:14:55;99930.78;;;3.84;76.84
74218;BME280;62579;47.288;18.646;2023-02-01T04:17:20;99924.19;;;3.76;76.99
74218;BME280;62579;47.288;18.646;2023-02-01T04:19:45;99929.72;;;3.73;77.40
74218;BME280;62579;47.288;18.646;2023-02-01T04:22:11;99928.97;;;3.72;77.37
74218;BME280;62579;47.288;18.646;2023-02-01T04:24:37;99931.38;;;3.70;77.68
74218;BME280;62579;47.288;18.646;2023-02-01T04:27:03;99933.16;;;3.73;77.58
74218;BME280;62579;47.288;18.646;2023-02-01T04:29:28;99937.94;;;3.78;77.36
74218;BME280;62579;47.288;18.646;2023-02-01T04:31:53;99939.31;;;3.74;77.69
74218;BME280;62579;47.288;18.646;2023-02-01T04:34:19;99941.97;;;3.64;78.00
74218;BME280;62579;47.288;18.646;2023-02-01T04:36:44;99952.88;;;3.70;77.77
74218;BME280;62579;47.288;18.646;2023-02-01T04:39:10;99949.75;;;3.62;78.19
74218;BME280;62579;47.288;18.646;2023-02-01T04:41:35;99939.56;;;3.57;78.49
74218;BME280;62579;47.288;18.646;2023-02-01T04:44:01;99943.47;;;3.66;77.97
74218;BME280;62579;47.288;18.646;2023-02-01T04:46:26;99946.88;;;3.57;78.30
74218;BME280;62579;47.288;18.646;2023-02-01T04:48:52;99961.25;;;3.72;77.85
74218;BME280;62579;47.288;18.646;2023-02-01T04:51:17;99963.78;;;3.67;78.22
74218;BME280;62579;47.288;18.646;2023-02-01T04:53:44;99958.88;;;3.65;78.12
74218;BME280;62579;47.288;18.646;2023-02-01T04:56:09;99961.41;;;3.59;78.54
74218;BME280;62579;47.288;18.646;2023-02-01T04:58:35;99975.44;;;3.54;78.61
74218;BME280;62579;47.288;18.646;2023-02-01T05:01:04;99961.97;;;3.63;78.38
74218;BME280;62579;47.288;18.646;2023-02-01T05:03:32;99971.37;;;3.50;78.88
74218;BME280;62579;47.288;18.646;2023-02-01T05:05:58;99969.72;;;3.52;78.84
74218;BME280;62579;47.288;18.646;2023-02-01T05:08:23;99977.50;;;3.50;79.11
74218;BME280;62579;47.288;18.646;2023-02-01T05:10:50;99970.06;;;3.54;79.00
74218;BME280;62579;47.288;18.646;2023-02-01T05:13:15;99965.97;;;3.41;79.51
74218;BME280;62579;47.288;18.646;2023-02-01T05:15:59;99970.94;;;3.51;79.24
74218;BME280;62579;47.288;18.646;2023-02-01T05:18:25;99953.88;;;3.45;79.61
74218;BME280;62579;47.288;18.646;2023-02-01T05:20:50;99970.78;;;3.46;79.63
74218;BME280;62579;47.288;18.646;2023-02-01T05:23:16;99982.53;;;3.39;79.98
74218;BME280;62579;47.288;18.646;2023-02-01T05:25:41;99971.06;;;3.39;80.06
74218;BME280;62579;47.288;18.646;2023-02-01T05:28:06;99972.41;;;3.43;79.86
74218;BME280;62579;47.288;18.646;2023-02-01T05:30:32;99977.16;;;3.39;80.12
74218;BME280;62579;47.288;18.646;2023-02-01T05:33:00;99974.81;;;3.41;80.10
74218;BME280;62579;47.288;18.646;2023-02-01T05:35:25;99974.94;;;3.38;80.37
74218;BME280;62579;47.288;18.646;2023-02-01T05:37:50;99981.50;;;3.37;80.24
74218;BME280;62579;47.288;18.646;2023-02-01T05:40:16;99973.75;;;3.39;80.33
74218;BME280;62579;47.288;18.646;2023-02-01T05:42:41;99968.22;;;3.42;80.28
74218;BME280;62579;47.288;18.646;2023-02-01T05:45:07;99967.47;;;3.42;80.10
74218;BME280;62579;47.288;18.646;2023-02-01T05:47:33;99981.38;;;3.40;80.24
74218;BME280;62579;47.288;18.646;2023-02-01T05:49:58;99982.28;;;3.46;80.22
74218;BME280;62579;47.288;18.646;2023-02-01T05:52:24;99985.81;;;3.34;80.69
74218;BME280;62579;47.288;18.646;2023-02-01T05:54:49;99991.06;;;3.38;80.59
74218;BME280;62579;47.288;18.646;2023-02-01T05:57:15;99983.13;;;3.34;80.83
74218;BME280;62579;47.288;18.646;2023-02-01T05:59:41;99983.41;;;3.27;81.04
74218;BME280;62579;47.288;18.646;2023-02-01T06:02:11;99979.50;;;3.19;81.52
74218;BME280;62579;47.288;18.646;2023-02-01T06:04:36;99980.09;;;3.23;81.39
74218;BME280;62579;47.288;18.646;2023-02-01T06:07:02;99981.72;;;3.21;81.36
74218;BME280;62579;47.288;18.646;2023-02-01T06:09:27;99979.66;;;3.25;81.16
74218;BME280;62579;47.288;18.646;2023-02-01T06:11:53;99986.06;;;3.18;81.21
74218;BME280;62579;47.288;18.646;2023-02-01T06:14:19;99979.03;;;3.21;81.13
74218;BME280;62579;47.288;18.646;2023-02-01T06:16:44;99980.69;;;3.18;81.35
74218;BME280;62579;47.288;18.646;2023-02-01T06:19:12;99993.25;;;3.21;81.11
74218;BME280;62579;47.288;18.646;2023-02-01T06:21:37;99979.97;;;3.27;80.89
74218;BME280;62579;47.288;18.646;2023-02-01T06:24:03;99979.03;;;3.21;81.03
74218;BME280;62579;47.288;18.646;2023-02-01T06:26:29;99982.94;;;3.20;81.06
74218;BME280;62579;47.288;18.646;2023-02-01T06:28:54;99979.91;;;3.18;80.97
74218;BME280;62579;47.288;18.646;2023-02-01T06:31:20;99985.66;;;3.29;80.61
74218;BME280;62579;47.288;18.646;2023-02-01T06:33:46;99991.00;;;3.20;80.80
74218;BME280;62579;47.288;18.646;2023-02-01T06:36:12;99991.47;;;3.27;80.73
74218;BME280;62579;47.288;18.646;2023-02-01T06:38:38;99996.88;;;3.27;80.55
74218;BME280;62579;47.288;18.646;2023-02-01T06:41:04;99999.56;;;3.36;80.29
74218;BME280;62579;47.288;18.646;2023-02-01T06:43:30;99998.97;;;3.32;80.37
74218;BME280;62579;47.288;18.646;2023-02-01T06:46:05;99987.63;;;3.37;80.04
74218;BME280;62579;47.288;18.646;2023-02-01T06:48:30;99992.44;;;3.42;79.85
74218;BME280;62579;47.288;18.646;2023-02-01T06:50:56;99996.38;;;3.59;79.24
74218;BME280;62579;47.288;18.646;2023-02-01T06:53:22;99998.31;;;3.59;79.49
74218;BME280;62579;47.288;18.646;2023-02-01T06:55:52;100007.47;;;3.71;79.11
74218;BME280;62579;47.288;18.646;2023-02-01T06:58:17;100006.59;;;3.83;78.58
74218;BME280;62579;47.288;18.646;2023-02-01T07:00:43;100013.34;;;3.87;78.27
74218;BME280;62579;47.288;18.646;2023-02-01T07:03:08;100018.56;;;3.91;78.49
74218;BME280;62579;47.288;18.646;2023-02-01T07:05:33;100013.34;;;3.96;78.06
74218;BME280;62579;47.288;18.646;2023-02-01T07:07:59;100008.41;;;4.04;77.54
74218;BME280;62579;47.288;18.646;2023-02-01T07:10:24;100022.66;;;4.13;77.17
74218;BME280;62579;47.288;18.646;2023-02-01T07:12:49;100028.03;;;4.13;76.66
74218;BME280;62579;47.288;18.646;2023-02-01T07:15:15;100042.56;;;4.16;76.69
74218;BME280;62579;47.288;18.646;2023-02-01T07:17:40;100033.25;;;4.17;76.69
74218;BME280;62579;47.288;18.646;2023-02-01T07:20:06;100033.25;;;4.17;76.73
74218;BME280;62579;47.288;18.646;2023-02-01T07:22:32;100027.47;;;4.28;76.45
74218;BME280;62579;47.288;18.646;2023-02-01T07:24:57;100017.44;;;4.37;75.97
74218;BME280;62579;47.288;18.646;2023-02-01T07:27:23;100027.00;;;4.47;75.80
74218;BME280;62579;47.288;18.646;2023-02-01T07:29:51;100026.69;;;4.63;76.12
74218;BME280;62579;47.288;18.646;2023-02-01T07:32:16;100021.44;;;4.69;75.62
74218;BME280;62579;47.288;18.646;2023-02-01T07:34:43;100024.44;;;4.62;76.08
74218;BME280;62579;47.288;18.646;2023-02-01T07:37:09;100020.53;;;4.63;76.13
74218;BME280;62579;47.288;18.646;2023-02-01T07:39:34;100033.87;;;4.66;76.17
74218;BME280;62579;47.288;18.646;2023-02-01T07:41:59;100014.69;;;4.73;75.91
74218;BME280;62579;47.288;18.646;2023-02-01T07:44:25;100026.84;;;4.69;76.26
74218;BME280;62579;47.288;18.646;2023-02-01T07:46:50;100031.31;;;4.72;76.80
74218;BME280;62579;47.288;18.646;2023-02-01T07:49:15;100046.00;;;4.71;75.87
74218;BME280;62579;47.288;18.646;2023-02-01T07:51:42;100031.94;;;4.76;75.97
74218;BME280;62579;47.288;18.646;2023-02-01T07:54:08;100029.38;;;4.72;75.75
74218;BME280;62579;47.288;18.646;2023-02-01T07:56:33;100037.00;;;4.92;74.62
74218;BME280;62579;47.288;18.646;2023-02-01T07:58:58;100028.59;;;4.90;74.71
74218;BME280;62579;47.288;18.646;2023-02-01T08:01:26;100041.78;;;4.97;74.44
74218;BME280;62579;47.288;18.646;2023-02-01T08:03:55;100054.94;;;4.95;75.01
74218;BME280;62579;47.288;18.646;2023-02-01T08:06:21;100050.31;;;4.96;74.57
74218;BME280;62579;47.288;18.646;2023-02-01T08:08:48;100056.28;;;5.09;73.59
74218;BME280;62579;47.288;18.646;2023-02-01T08:11:14;100072.59;;;5.14;73.79
74218;BME280;62579;47.288;18.646;2023-02-01T08:13:40;100077.13;;;5.08;74.18
74218;BME280;62579;47.288;18.646;2023-02-01T08:16:08;100069.38;;;4.92;73.85
74218;BME280;62579;47.288;18.646;2023-02-01T08:18:35;100067.72;;;4.76;73.84
74218;BME280;62579;47.288;18.646;2023-02-01T08:21:09;100078.34;;;4.80;73.74
74218;BME280;62579;47.288;18.646;2023-02-01T08:23:36;100086.59;;;4.85;73.37
74218;BME280;62579;47.288;18.646;2023-02-01T08:26:23;100084.63;;;4.86;73.43
74218;BME280;62579;47.288;18.646;2023-02-01T08:28:56;100079.06;;;4.99;73.96
74218;BME280;62579;47.288;18.646;2023-02-01T08:31:23;100097.81;;;5.02;74.02
74218;BME280;62579;47.288;18.646;2023-02-01T08:33:54;100091.06;;;5.07;73.45
74218;BME280;62579;47.288;18.646;2023-02-01T08:36:20;100088.22;;;5.01;73.45
74218;BME280;62579;47.288;18.646;2023-02-01T08:38:46;100082.22;;;5.06;73.85
74218;BME280;62579;47.288;18.646;2023-02-01T08:41:23;100089.25;;;5.04;74.00
74218;BME280;62579;47.288;18.646;2023-02-01T08:43:49;100078.59;;;5.09;73.71
74218;BME280;62579;47.288;18.646;2023-02-01T08:46:16;100083.38;;;5.23;74.37
74218;BME280;62579;47.288;18.646;2023-02-01T08:48:42;100079.78;;;5.26;74.53
74218;BME280;62579;47.288;18.646;2023-02-01T08:51:10;100073.16;;;5.27;73.96
74218;BME280;62579;47.288;18.646;2023-02-01T08:53:37;100068.22;;;5.35;74.39
74218;BME280;62579;47.288;18.646;2023-02-01T08:56:04;100064.28;;;5.36;74.62
74218;BME280;62579;47.288;18.646;2023-02-01T08:58:29;100057.09;;;5.42;74.68
74218;BME280;62579;47.288;18.646;2023-02-01T09:00:55;100058.50;;;5.61;73.99
74218;BME280;62579;47.288;18.646;2023-02-01T09:03:21;100056.25;;;5.60;75.52
74218;BME280;62579;47.288;18.646;2023-02-01T09:05:46;100056.69;;;5.67;75.62
74218;BME280;62579;47.288;18.646;2023-02-01T09:08:13;100043.53;;;5.84;74.64
74218;BME280;62579;47.288;18.646;2023-02-01T09:10:40;100055.53;;;5.92;74.15
74218;BME280;62579;47.288;18.646;2023-02-01T09:13:06;100053.87;;;5.94;74.16
74218;BME280;62579;47.288;18.646;2023-02-01T09:15:33;100061.28;;;5.85;74.32
74218;BME280;62579;47.288;18.646;2023-02-01T09:17:58;100063.19;;;5.93;74.39
74218;BME280;62579;47.288;18.646;2023-02-01T09:20:23;100066.47;;;5.97;74.50
74218;BME280;62579;47.288;18.646;2023-02-01T09:22:50;100059.69;;;6.02;73.83
74218;BME280;62579;47.288;18.646;2023-02-01T09:25:16;100066.28;;;6.01;73.37
74218;BME280;62579;47.288;18.646;2023-02-01T09:27:42;100065.59;;;5.91;74.44
74218;BME280;62579;47.288;18.646;2023-02-01T09:30:08;100066.94;;;5.96;74.58
74218;BME280;62579;47.288;18.646;2023-02-01T09:32:34;100064.78;;;6.00;75.08
74218;BME280;62579;47.288;18.646;2023-02-01T09:34:59;100068.59;;;5.93;75.12
74218;BME280;62579;47.288;18.646;2023-02-01T09:37:25;100060.72;;;6.04;73.88
74218;BME280;62579;47.288;18.646;2023-02-01T09:39:51;100069.34;;;5.94;74.28
74218;BME280;62579;47.288;18.646;2023-02-01T09:42:42;100065.13;;;5.93;74.39
74218;BME280;62579;47.288;18.646;2023-02-01T09:45:20;100061.88;;;5.89;74.69
74218;BME280;62579;47.288;18.646;2023-02-01T09:47:51;100054.44;;;5.98;74.81
74218;BME280;62579;47.288;18.646;2023-02-01T09:50:33;100055.22;;;5.99;74.58
74218;BME280;62579;47.288;18.646;2023-02-01T09:53:37;100051.81;;;6.13;73.79
74218;BME280;62579;47.288;18.646;2023-02-01T09:56:14;100025.84;;;6.16;73.85
74218;BME280;62579;47.288;18.646;2023-02-01T09:58:57;100028.94;;;6.23;74.13
74218;BME280;62579;47.288;18.646;2023-02-01T10:01:26;100033.94;;;6.16;73.75
74218;BME280;62579;47.288;18.646;2023-02-01T10:04:02;100021.16;;;6.16;73.80
74218;BME280;62579;47.288;18.646;2023-02-01T10:09:30;100025.88;;;6.30;72.64
74218;BME280;62579;47.288;18.646;2023-02-01T10:15:01;100013.16;;;6.45;72.61
74218;BME280;62579;47.288;18.646;2023-02-01T10:20:25;99993.69;;;6.56;71.01
74218;BME280;62579;47.288;18.646;2023-02-01T10:23:06;99981.62;;;6.57;71.34
74218;BME280;62579;47.288;18.646;2023-02-01T10:25:55;99995.25;;;6.62;71.73
74218;BME280;62579;47.288;18.646;2023-02-01T10:28:22;99999.47;;;6.63;71.05
74218;BME280;62579;47.288;18.646;2023-02-01T10:30:53;99991.72;;;6.71;70.75
74218;BME280;62579;47.288;18.646;2023-02-01T10:33:26;99983.03;;;6.67;71.24
74218;BME280;62579;47.288;18.646;2023-02-01T10:36:23;99979.13;;;6.68;71.54
74218;BME280;62579;47.288;18.646;2023-02-01T10:38:47;99980.72;;;6.60;71.63
74218;BME280;62579;47.288;18.646;2023-02-01T10:41:15;99975.19;;;6.54;70.99
74218;BME280;62579;47.288;18.646;2023-02-01T10:43:43;99970.66;;;6.60;71.45
74218;BME280;62579;47.288;18.646;2023-02-01T10:46:10;99970.66;;;6.60;71.07
74218;BME280;62579;47.288;18.646;2023-02-01T10:48:36;99964.09;;;6.67;70.51
74218;BME280;62579;47.288;18.646;2023-02-01T10:51:29;99968.69;;;6.61;70.79
74218;BME280;62579;47.288;18.646;2023-02-01T10:54:00;99970.00;;;6.65;70.70
74218;BME280;62579;47.288;18.646;2023-02-01T10:56:28;99954.34;;;6.70;68.98
74218;BME280;62579;47.288;18.646;2023-02-01T10:59:15;99954.69;;;6.77;69.51
74218;BME280;62579;47.288;18.646;2023-02-01T11:01:42;99952.75;;;6.78;68.58
74218;BME280;62579;47.288;18.646;2023-02-01T11:04:12;99951.16;;;6.71;69.04
74218;BME280;62579;47.288;18.646;2023-02-01T11:06:41;99947.34;;;6.63;69.80
74218;BME280;62579;47.288;18.646;2023-02-01T11:11:55;99941.84;;;6.72;70.27
74218;BME280;62579;47.288;18.646;2023-02-01T11:16:54;99936.62;;;6.69;70.21
74218;BME280;62579;47.288;18.646;2023-02-01T11:19:20;99928.59;;;6.74;69.89
74218;BME280;62579;47.288;18.646;2023-02-01T11:21:50;99937.81;;;6.82;69.81
74218;BME280;62579;47.288;18.646;2023-02-01T11:24:31;99924.47;;;6.93;69.12
74218;BME280;62579;47.288;18.646;2023-02-01T11:26:59;99915.34;;;6.91;69.00
74218;BME280;62579;47.288;18.646;2023-02-01T11:29:29;99915.69;;;6.98;69.55
74218;BME280;62579;47.288;18.646;2023-02-01T11:32:00;99905.69;;;7.04;69.53
74218;BME280;62579;47.288;18.646;2023-02-01T11:34:34;99889.88;;;7.17;66.56
74218;BME280;62579;47.288;18.646;2023-02-01T11:37:02;99902.94;;;7.19;67.42
74218;BME280;62579;47.288;18.646;2023-02-01T11:39:33;99887.13;;;7.32;67.11
74218;BME280;62579;47.288;18.646;2023-02-01T11:42:15;99874.19;;;7.21;66.71
74218;BME280;62579;47.288;18.646;2023-02-01T11:44:46;99881.47;;;7.15;66.62
74218;BME280;62579;47.288;18.646;2023-02-01T11:49:43;99867.34;;;7.06;69.46
74218;BME280;62579;47.288;18.646;2023-02-01T11:52:21;99880.69;;;6.95;69.53
74218;BME280;62579;47.288;18.646;2023-02-01T12:06:35;99884.13;;;6.31;75.97
74218;BME280;62579;47.288;18.646;2023-02-01T12:12:25;99892.47;;;6.19;75.93
74218;BME280;62579;47.288;18.646;2023-02-01T12:24:11;99929.09;;;5.58;79.69
74218;BME280;62579;47.288;18.646;2023-02-01T12:32:29;99948.37;;;5.09;83.86
74218;BME280;62579;47.288;18.646;2023-02-01T12:46:22;99897.69;;;4.89;88.17
74218;BME280;62579;47.288;18.646;2023-02-01T12:51:29;99873.41;;;4.89;88.60
74218;BME280;62579;47.288;18.646;2023-02-01T12:54:04;99878.97;;;4.85;88.71
74218;BME280;62579;47.288;18.646;2023-02-01T12:56:46;99855.69;;;4.97;88.75
74218;BME280;62579;47.288;18.646;2023-02-01T12:59:20;99843.88;;;4.95;88.71
74218;BME280;62579;47.288;18.646;2023-02-01T13:01:54;99849.28;;;4.95;88.88
74218;BME280;62579;47.288;18.646;2023-02-01T13:06:54;99854.59;;;5.04;88.44
74218;BME280;62579;47.288;18.646;2023-02-01T13:12:13;99842.50;;;4.99;89.12
74218;BME280;62579;47.288;18.646;2023-02-01T13:14:45;99843.56;;;4.93;88.23
74218;BME280;62579;47.288;18.646;2023-02-01T13:17:21;99841.31;;;5.00;88.30
74218;BME280;62579;47.288;18.646;2023-02-01T13:22:25;99852.25;;;4.97;88.29
74218;BME280;62579;47.288;18.646;2023-02-01T13:24:56;99854.03;;;5.00;88.09
74218;BME280;62579;47.288;18.646;2023-02-01T13:27:26;99849.41;;;5.00;88.74
74218;BME280;62579;47.288;18.646;2023-02-01T13:33:20;99870.16;;;5.09;86.43
74218;BME280;62579;47.288;18.646;2023-02-01T13:44:39;99912.00;;;5.04;87.86
74218;BME280;62579;47.288;18.646;2023-02-01T13:47:24;99891.25;;;4.87;87.41
74218;BME280;62579;47.288;18.646;2023-02-01T13:49:53;99895.91;;;4.86;88.45
74218;BME280;62579;47.288;18.646;2023-02-01T13:52:40;99906.28;;;4.69;89.06
74218;BME280;62579;47.288;18.646;2023-02-01T13:57:45;99909.03;;;4.42;87.02
74218;BME280;62579;47.288;18.646;2023-02-01T14:00:27;99878.50;;;4.36;87.60
74218;BME280;62579;47.288;18.646;2023-02-01T14:03:08;99877.47;;;4.34;87.16
74218;BME280;62579;47.288;18.646;2023-02-01T14:10:56;99872.06;;;4.43;86.85
74218;BME280;62579;47.288;18.646;2023-02-01T14:28:50;99909.78;;;5.03;84.65
74218;BME280;62579;47.288;18.646;2023-02-01T14:31:32;99901.47;;;5.15;84.69
74218;BME280;62579;47.288;18.646;2023-02-01T14:34:00;99899.66;;;5.12;85.42
74218;BME280;62579;47.288;18.646;2023-02-01T14:36:40;99896.44;;;5.32;85.32
74218;BME280;62579;47.288;18.646;2023-02-01T14:39:36;99899.66;;;5.45;85.31
74218;BME280;62579;47.288;18.646;2023-02-01T14:42:14;99899.28;;;5.52;84.97
74218;BME280;62579;47.288;18.646;2023-02-01T14:44:41;99899.06;;;5.65;83.96
74218;BME280;62579;47.288;18.646;2023-02-01T14:49:58;99896.94;;;5.69;83.55
74218;BME280;62579;47.288;18.646;2023-02-01T14:52:48;99890.78;;;5.68;83.04
74218;BME280;62579;47.288;18.646;2023-02-01T14:55:21;99898.44;;;5.70;82.31
74218;BME280;62579;47.288;18.646;2023-02-01T14:57:50;99894.06;;;5.72;82.48
74218;BME280;62579;47.288;18.646;2023-02-01T15:02:45;99881.00;;;5.71;83.16
74218;BME280;62579;47.288;18.646;2023-02-01T15:05:32;99873.03;;;5.76;82.96
74218;BME280;62579;47.288;18.646;2023-02-01T15:08:19;99867.44;;;5.80;82.95
74218;BME280;62579;47.288;18.646;2023-02-01T15:10:48;99858.31;;;5.77;83.04
74218;BME280;62579;47.288;18.646;2023-02-01T15:13:24;99857.09;;;5.78;83.04
74218;BME280;62579;47.288;18.646;2023-02-01T15:16:14;99857.66;;;5.82;82.72
74218;BME280;62579;47.288;18.646;2023-02-01T15:18:40;99850.50;;;5.79;82.35
74218;BME280;62579;47.288;18.646;2023-02-01T15:21:12;99860.09;;;5.80;82.92
74218;BME280;62579;47.288;18.646;2023-02-01T15:23:39;99862.50;;;5.78;81.31
74218;BME280;62579;47.288;18.646;2023-02-01T15:26:05;99862.72;;;5.89;81.57